Burlington, Connecticut
Current Conditions -  °F | °C
As of 4:53 PM on Sunday 23 Nov 2014 (Local Time) from KHFD Reporting Station
Clear Clear  
Wind Chill: 50°   Ceiling: Unl
Heat Index: 50°   Visibility: 10mi
Dew Point: 29°   Wind: 5mph
Humidity: 44%   Direction: 170°S
Pressure: 30.13"   Gusts: NA
Location:  41.76°N, 72.96°W
Report Text: KHFD 232153Z 17004KT 10SM CLR 10/M02 A3013 RMK AO2 SLP201 T01001017
Loading
Personal Weather Stations






























Interactive Weather Map New forecast layout! Learn more

10-Day Weather Forecast

Advertisements
Track Severe Weather on mobile